Terminal Aerodrome Forecast
Issued by NWS Jackson, MS

Current Version | Previous Version | Text Only | Print | Product List | Glossary On
Versions: 1 2 3 4 5 6 7 8 9 10 11 12
000
FTUS44 KJAN 050520
TAFJAN
TAF
KJAN 050520Z 0506/0606 13006KT P6SM SKC
     FM051800 13011KT P6SM SCT060
     FM060000 12007KT P6SM SKC=

USA.gov is the U.S. government's official web portal to all federal, state and local government web resources and services.